sensor_id;sensor_type;location;lat;lon;timestamp;temperature;humidity
78992;DHT22;72820;44.838;37.674;2023-12-20T00:00:57;9.69;84.76
78992;DHT22;72820;44.838;37.674;2023-12-20T00:01:59;9.67;84.82
78992;DHT22;72820;44.838;37.674;2023-12-20T00:03:00;9.69;84.88
78992;DHT22;72820;44.838;37.674;2023-12-20T00:04:03;9.70;85.06
78992;DHT22;72820;44.838;37.674;2023-12-20T00:05:05;9.72;85.03
78992;DHT22;72820;44.838;37.674;2023-12-20T00:06:07;9.70;85.19
78992;DHT22;72820;44.838;37.674;2023-12-20T00:07:08;9.70;85.40
78992;DHT22;72820;44.838;37.674;2023-12-20T00:08:10;9.67;85.37
78992;DHT22;72820;44.838;37.674;2023-12-20T00:09:12;9.67;85.57
78992;DHT22;72820;44.838;37.674;2023-12-20T00:10:14;9.75;85.58
78992;DHT22;72820;44.838;37.674;2023-12-20T00:11:16;9.75;85.42
78992;DHT22;72820;44.838;37.674;2023-12-20T00:12:18;9.75;85.44
78992;DHT22;72820;44.838;37.674;2023-12-20T00:13:19;9.75;85.29
78992;DHT22;72820;44.838;37.674;2023-12-20T00:14:21;9.69;85.44
78992;DHT22;72820;44.838;37.674;2023-12-20T00:15:23;9.70;85.47
78992;DHT22;72820;44.838;37.674;2023-12-20T00:16:24;9.72;85.78
78992;DHT22;72820;44.838;37.674;2023-12-20T00:17:26;9.70;85.51
78992;DHT22;72820;44.838;37.674;2023-12-20T00:18:28;9.73;85.58
78992;DHT22;72820;44.838;37.674;2023-12-20T00:19:29;9.72;85.51
78992;DHT22;72820;44.838;37.674;2023-12-20T00:20:31;9.72;85.50
78992;DHT22;72820;44.838;37.674;2023-12-20T00:21:33;9.72;85.55
78992;DHT22;72820;44.838;37.674;2023-12-20T00:22:35;9.72;85.69
78992;DHT22;72820;44.838;37.674;2023-12-20T00:23:36;9.67;85.94
78992;DHT22;72820;44.838;37.674;2023-12-20T00:24:38;9.70;85.94
78992;DHT22;72820;44.838;37.674;2023-12-20T00:25:40;9.72;86.11
78992;DHT22;72820;44.838;37.674;2023-12-20T00:26:42;9.73;86.29
78992;DHT22;72820;44.838;37.674;2023-12-20T00:27:43;9.73;86.16
78992;DHT22;72820;44.838;37.674;2023-12-20T00:28:45;9.73;86.21
78992;DHT22;72820;44.838;37.674;2023-12-20T00:29:47;9.73;86.19
78992;DHT22;72820;44.838;37.674;2023-12-20T00:30:51;9.69;86.16
78992;DHT22;72820;44.838;37.674;2023-12-20T00:31:53;9.67;86.36
78992;DHT22;72820;44.838;37.674;2023-12-20T00:32:55;9.66;86.50
78992;DHT22;72820;44.838;37.674;2023-12-20T00:33:57;9.72;86.51
78992;DHT22;72820;44.838;37.674;2023-12-20T00:34:59;9.72;86.19
78992;DHT22;72820;44.838;37.674;2023-12-20T00:36:00;9.67;86.22
78992;DHT22;72820;44.838;37.674;2023-12-20T00:37:02;9.66;86.48
78992;DHT22;72820;44.838;37.674;2023-12-20T00:38:04;9.67;86.71
78992;DHT22;72820;44.838;37.674;2023-12-20T00:39:08;9.59;86.45
78992;DHT22;72820;44.838;37.674;2023-12-20T00:40:10;9.56;86.40
78992;DHT22;72820;44.838;37.674;2023-12-20T00:41:12;9.52;86.82
78992;DHT22;72820;44.838;37.674;2023-12-20T00:42:14;9.50;86.98
78992;DHT22;72820;44.838;37.674;2023-12-20T00:43:15;9.55;86.80
78992;DHT22;72820;44.838;37.674;2023-12-20T00:44:17;9.55;86.27
78992;DHT22;72820;44.838;37.674;2023-12-20T00:45:19;9.53;85.87
78992;DHT22;72820;44.838;37.674;2023-12-20T00:46:21;9.50;85.89
78992;DHT22;72820;44.838;37.674;2023-12-20T00:47:23;9.49;86.08
78992;DHT22;72820;44.838;37.674;2023-12-20T00:48:24;9.53;86.88
78992;DHT22;72820;44.838;37.674;2023-12-20T00:49:28;9.53;85.88
78992;DHT22;72820;44.838;37.674;2023-12-20T00:50:30;9.43;85.96
78992;DHT22;72820;44.838;37.674;2023-12-20T00:51:31;9.43;86.45
78992;DHT22;72820;44.838;37.674;2023-12-20T00:52:33;9.42;86.48
78992;DHT22;72820;44.838;37.674;2023-12-20T00:53:34;9.43;86.85
78992;DHT22;72820;44.838;37.674;2023-12-20T00:54:36;9.39;86.67
78992;DHT22;72820;44.838;37.674;2023-12-20T00:55:38;9.35;87.00
78992;DHT22;72820;44.838;37.674;2023-12-20T00:56:39;9.38;87.44
78992;DHT22;72820;44.838;37.674;2023-12-20T00:57:41;9.38;87.40
78992;DHT22;72820;44.838;37.674;2023-12-20T00:58:43;9.39;87.35
78992;DHT22;72820;44.838;37.674;2023-12-20T00:59:44;9.39;87.10
78992;DHT22;72820;44.838;37.674;2023-12-20T01:00:46;9.40;87.39
78992;DHT22;72820;44.838;37.674;2023-12-20T01:01:48;9.43;87.40
78992;DHT22;72820;44.838;37.674;2023-12-20T01:02:49;9.40;87.28
78992;DHT22;72820;44.838;37.674;2023-12-20T01:03:52;9.43;87.29
78992;DHT22;72820;44.838;37.674;2023-12-20T01:04:54;9.42;87.22
78992;DHT22;72820;44.838;37.674;2023-12-20T01:05:55;9.43;87.15
78992;DHT22;72820;44.838;37.674;2023-12-20T01:06:57;9.39;86.74
78992;DHT22;72820;44.838;37.674;2023-12-20T01:07:59;9.42;87.08
78992;DHT22;72820;44.838;37.674;2023-12-20T01:09:01;9.46;87.22
78992;DHT22;72820;44.838;37.674;2023-12-20T01:10:03;9.46;87.00
78992;DHT22;72820;44.838;37.674;2023-12-20T01:11:05;9.49;86.97
78992;DHT22;72820;44.838;37.674;2023-12-20T01:12:07;9.50;87.00
78992;DHT22;72820;44.838;37.674;2023-12-20T01:13:08;9.52;86.87
78992;DHT22;72820;44.838;37.674;2023-12-20T01:14:10;9.52;86.87
78992;DHT22;72820;44.838;37.674;2023-12-20T01:15:12;9.56;86.84
78992;DHT22;72820;44.838;37.674;2023-12-20T01:16:13;9.56;86.70
78992;DHT22;72820;44.838;37.674;2023-12-20T01:17:15;9.53;86.83
78992;DHT22;72820;44.838;37.674;2023-12-20T01:18:17;9.55;86.80
78992;DHT22;72820;44.838;37.674;2023-12-20T01:19:18;9.59;86.73
78992;DHT22;72820;44.838;37.674;2023-12-20T01:20:20;9.58;86.80
78992;DHT22;72820;44.838;37.674;2023-12-20T01:21:22;9.59;86.84
78992;DHT22;72820;44.838;37.674;2023-12-20T01:22:23;9.58;86.77
78992;DHT22;72820;44.838;37.674;2023-12-20T01:23:25;9.60;86.67
78992;DHT22;72820;44.838;37.674;2023-12-20T01:24:27;9.58;86.53
78992;DHT22;72820;44.838;37.674;2023-12-20T01:25:28;9.58;86.81
78992;DHT22;72820;44.838;37.674;2023-12-20T01:26:30;9.60;86.85
78992;DHT22;72820;44.838;37.674;2023-12-20T01:27:31;9.60;86.72
78992;DHT22;72820;44.838;37.674;2023-12-20T01:28:33;9.59;86.60
78992;DHT22;72820;44.838;37.674;2023-12-20T01:29:35;9.59;86.68
78992;DHT22;72820;44.838;37.674;2023-12-20T01:30:36;9.59;86.79
78992;DHT22;72820;44.838;37.674;2023-12-20T01:31:38;9.60;86.23
78992;DHT22;72820;44.838;37.674;2023-12-20T01:32:40;9.60;85.79
78992;DHT22;72820;44.838;37.674;2023-12-20T01:33:41;9.53;86.17
78992;DHT22;72820;44.838;37.674;2023-12-20T01:34:43;9.55;86.58
78992;DHT22;72820;44.838;37.674;2023-12-20T01:35:44;9.55;86.17
78992;DHT22;72820;44.838;37.674;2023-12-20T01:36:46;9.58;86.27
78992;DHT22;72820;44.838;37.674;2023-12-20T01:37:48;9.59;86.29
78992;DHT22;72820;44.838;37.674;2023-12-20T01:38:49;9.63;85.94
78992;DHT22;72820;44.838;37.674;2023-12-20T01:39:51;9.65;85.53
78992;DHT22;72820;44.838;37.674;2023-12-20T01:40:52;9.62;85.77
78992;DHT22;72820;44.838;37.674;2023-12-20T01:41:54;9.60;85.78
78992;DHT22;72820;44.838;37.674;2023-12-20T01:43:07;9.63;85.92
78992;DHT22;72820;44.838;37.674;2023-12-20T01:44:09;9.63;85.52
78992;DHT22;72820;44.838;37.674;2023-12-20T01:45:11;9.62;85.62
78992;DHT22;72820;44.838;37.674;2023-12-20T01:46:13;9.63;85.68
78992;DHT22;72820;44.838;37.674;2023-12-20T01:47:14;9.65;85.72
78992;DHT22;72820;44.838;37.674;2023-12-20T01:48:16;9.63;85.92
78992;DHT22;72820;44.838;37.674;2023-12-20T01:49:18;9.60;85.92
78992;DHT22;72820;44.838;37.674;2023-12-20T01:50:21;9.62;85.69
78992;DHT22;72820;44.838;37.674;2023-12-20T01:51:22;9.60;85.76
78992;DHT22;72820;44.838;37.674;2023-12-20T01:52:25;9.63;85.98
78992;DHT22;72820;44.838;37.674;2023-12-20T01:53:28;9.62;86.03
78992;DHT22;72820;44.838;37.674;2023-12-20T01:54:30;9.66;86.30
78992;DHT22;72820;44.838;37.674;2023-12-20T01:55:34;9.67;86.00
78992;DHT22;72820;44.838;37.674;2023-12-20T01:56:36;9.65;86.18
78992;DHT22;72820;44.838;37.674;2023-12-20T01:57:42;9.59;86.41
78992;DHT22;72820;44.838;37.674;2023-12-20T01:58:45;9.59;86.59
78992;DHT22;72820;44.838;37.674;2023-12-20T01:59:47;9.59;86.61
78992;DHT22;72820;44.838;37.674;2023-12-20T02:00:50;9.60;87.12
78992;DHT22;72820;44.838;37.674;2023-12-20T02:01:51;9.63;86.77
78992;DHT22;72820;44.838;37.674;2023-12-20T02:02:54;9.63;86.55
78992;DHT22;72820;44.838;37.674;2023-12-20T02:03:59;9.56;86.51
78992;DHT22;72820;44.838;37.674;2023-12-20T02:05:01;9.65;86.73
78992;DHT22;72820;44.838;37.674;2023-12-20T02:06:04;9.59;86.49
78992;DHT22;72820;44.838;37.674;2023-12-20T02:07:07;9.59;86.59
78992;DHT22;72820;44.838;37.674;2023-12-20T02:08:08;9.59;86.49
78992;DHT22;72820;44.838;37.674;2023-12-20T02:09:10;9.59;86.71
78992;DHT22;72820;44.838;37.674;2023-12-20T02:10:12;9.58;86.66
78992;DHT22;72820;44.838;37.674;2023-12-20T02:11:14;9.60;86.61
78992;DHT22;72820;44.838;37.674;2023-12-20T02:12:15;9.58;86.65
78992;DHT22;72820;44.838;37.674;2023-12-20T02:13:17;9.60;86.41
78992;DHT22;72820;44.838;37.674;2023-12-20T02:14:19;9.65;86.49
78992;DHT22;72820;44.838;37.674;2023-12-20T02:15:21;9.62;86.55
78992;DHT22;72820;44.838;37.674;2023-12-20T02:16:22;9.62;86.28
78992;DHT22;72820;44.838;37.674;2023-12-20T02:17:25;9.62;85.86
78992;DHT22;72820;44.838;37.674;2023-12-20T02:18:27;9.65;85.31
78992;DHT22;72820;44.838;37.674;2023-12-20T02:19:29;9.63;85.38
78992;DHT22;72820;44.838;37.674;2023-12-20T02:20:30;9.65;85.63
78992;DHT22;72820;44.838;37.674;2023-12-20T02:21:32;9.66;85.84
78992;DHT22;72820;44.838;37.674;2023-12-20T02:22:35;9.66;85.67
78992;DHT22;72820;44.838;37.674;2023-12-20T02:23:37;9.66;85.56
78992;DHT22;72820;44.838;37.674;2023-12-20T02:24:38;9.67;85.54
78992;DHT22;72820;44.838;37.674;2023-12-20T02:25:40;9.69;85.67
78992;DHT22;72820;44.838;37.674;2023-12-20T02:26:42;9.69;85.16
78992;DHT22;72820;44.838;37.674;2023-12-20T02:27:44;9.70;85.38
78992;DHT22;72820;44.838;37.674;2023-12-20T02:28:46;9.67;85.35
78992;DHT22;72820;44.838;37.674;2023-12-20T02:29:47;9.69;85.40
78992;DHT22;72820;44.838;37.674;2023-12-20T02:30:49;9.69;85.02
78992;DHT22;72820;44.838;37.674;2023-12-20T02:31:51;9.69;85.22
78992;DHT22;72820;44.838;37.674;2023-12-20T02:32:53;9.67;85.39
78992;DHT22;72820;44.838;37.674;2023-12-20T02:33:55;9.67;85.45
78992;DHT22;72820;44.838;37.674;2023-12-20T02:34:57;9.67;85.68
78992;DHT22;72820;44.838;37.674;2023-12-20T02:35:59;9.67;85.44
78992;DHT22;72820;44.838;37.674;2023-12-20T02:37:00;9.67;85.62
78992;DHT22;72820;44.838;37.674;2023-12-20T02:38:02;9.72;85.42
78992;DHT22;72820;44.838;37.674;2023-12-20T02:39:04;9.72;85.33
78992;DHT22;72820;44.838;37.674;2023-12-20T02:40:06;9.72;85.35
78992;DHT22;72820;44.838;37.674;2023-12-20T02:41:08;9.75;85.27
78992;DHT22;72820;44.838;37.674;2023-12-20T02:42:11;9.72;85.27
78992;DHT22;72820;44.838;37.674;2023-12-20T02:43:13;9.72;85.35
78992;DHT22;72820;44.838;37.674;2023-12-20T02:44:14;9.73;85.22
78992;DHT22;72820;44.838;37.674;2023-12-20T02:45:16;9.73;85.44
78992;DHT22;72820;44.838;37.674;2023-12-20T02:46:18;9.76;85.14
78992;DHT22;72820;44.838;37.674;2023-12-20T02:47:19;9.70;84.82
78992;DHT22;72820;44.838;37.674;2023-12-20T02:48:22;9.73;84.75
78992;DHT22;72820;44.838;37.674;2023-12-20T02:49:24;9.72;84.52
78992;DHT22;72820;44.838;37.674;2023-12-20T02:50:29;9.73;84.65
78992;DHT22;72820;44.838;37.674;2023-12-20T02:51:30;9.73;84.83
78992;DHT22;72820;44.838;37.674;2023-12-20T02:52:32;9.73;84.49
78992;DHT22;72820;44.838;37.674;2023-12-20T02:53:34;9.69;84.09
78992;DHT22;72820;44.838;37.674;2023-12-20T02:54:35;9.67;84.68
78992;DHT22;72820;44.838;37.674;2023-12-20T02:55:37;9.69;84.21
78992;DHT22;72820;44.838;37.674;2023-12-20T02:56:39;9.70;84.27
78992;DHT22;72820;44.838;37.674;2023-12-20T02:57:40;9.73;84.18
78992;DHT22;72820;44.838;37.674;2023-12-20T02:58:43;9.70;84.11
78992;DHT22;72820;44.838;37.674;2023-12-20T02:59:44;9.70;84.32
78992;DHT22;72820;44.838;37.674;2023-12-20T03:00:46;9.70;84.46
78992;DHT22;72820;44.838;37.674;2023-12-20T03:01:48;9.67;84.91
78992;DHT22;72820;44.838;37.674;2023-12-20T03:02:49;9.72;84.97
78992;DHT22;72820;44.838;37.674;2023-12-20T03:03:51;9.73;84.91
78992;DHT22;72820;44.838;37.674;2023-12-20T03:04:52;9.80;85.03
78992;DHT22;72820;44.838;37.674;2023-12-20T03:06:00;9.79;84.77
78992;DHT22;72820;44.838;37.674;2023-12-20T03:07:01;9.79;84.60
78992;DHT22;72820;44.838;37.674;2023-12-20T03:08:03;9.77;84.86
78992;DHT22;72820;44.838;37.674;2023-12-20T03:09:06;9.79;84.83
78992;DHT22;72820;44.838;37.674;2023-12-20T03:10:08;9.73;84.54
78992;DHT22;72820;44.838;37.674;2023-12-20T03:11:11;9.77;84.82
78992;DHT22;72820;44.838;37.674;2023-12-20T03:12:12;9.77;85.06
78992;DHT22;72820;44.838;37.674;2023-12-20T03:13:14;9.79;84.92
78992;DHT22;72820;44.838;37.674;2023-12-20T03:14:16;9.82;85.03
78992;DHT22;72820;44.838;37.674;2023-12-20T03:15:17;9.83;84.91
78992;DHT22;72820;44.838;37.674;2023-12-20T03:16:19;9.83;84.62
78992;DHT22;72820;44.838;37.674;2023-12-20T03:17:21;9.80;84.59
78992;DHT22;72820;44.838;37.674;2023-12-20T03:18:22;9.80;84.79
78992;DHT22;72820;44.838;37.674;2023-12-20T03:19:24;9.80;85.02
78992;DHT22;72820;44.838;37.674;2023-12-20T03:20:26;9.77;85.02
78992;DHT22;72820;44.838;37.674;2023-12-20T03:21:27;9.79;85.31
78992;DHT22;72820;44.838;37.674;2023-12-20T03:22:29;9.80;85.42
78992;DHT22;72820;44.838;37.674;2023-12-20T03:23:31;9.84;85.64
78992;DHT22;72820;44.838;37.674;2023-12-20T03:24:33;9.87;85.45
78992;DHT22;72820;44.838;37.674;2023-12-20T03:25:35;9.86;85.53
78992;DHT22;72820;44.838;37.674;2023-12-20T03:26:37;9.84;85.62
78992;DHT22;72820;44.838;37.674;2023-12-20T03:27:38;9.84;85.69
78992;DHT22;72820;44.838;37.674;2023-12-20T03:28:40;9.84;85.78
78992;DHT22;72820;44.838;37.674;2023-12-20T03:29:42;9.84;85.91
78992;DHT22;72820;44.838;37.674;2023-12-20T03:30:43;9.84;86.29
78992;DHT22;72820;44.838;37.674;2023-12-20T03:31:45;9.87;85.97
78992;DHT22;72820;44.838;37.674;2023-12-20T03:32:47;9.86;85.93
78992;DHT22;72820;44.838;37.674;2023-12-20T03:33:49;9.89;85.69
78992;DHT22;72820;44.838;37.674;2023-12-20T03:34:52;9.86;85.54
78992;DHT22;72820;44.838;37.674;2023-12-20T03:35:53;9.89;85.56
78992;DHT22;72820;44.838;37.674;2023-12-20T03:36:55;9.89;85.56
78992;DHT22;72820;44.838;37.674;2023-12-20T03:37:57;9.90;85.56
78992;DHT22;72820;44.838;37.674;2023-12-20T03:39:01;9.90;85.53
78992;DHT22;72820;44.838;37.674;2023-12-20T03:40:03;9.91;85.42
78992;DHT22;72820;44.838;37.674;2023-12-20T03:41:06;9.93;85.52
78992;DHT22;72820;44.838;37.674;2023-12-20T03:42:08;9.94;85.43
78992;DHT22;72820;44.838;37.674;2023-12-20T03:43:10;9.98;85.56
78992;DHT22;72820;44.838;37.674;2023-12-20T03:44:11;10.00;85.31
78992;DHT22;72820;44.838;37.674;2023-12-20T03:45:13;9.97;85.00
78992;DHT22;72820;44.838;37.674;2023-12-20T03:46:15;9.94;85.18
78992;DHT22;72820;44.838;37.674;2023-12-20T03:47:16;9.94;85.25
78992;DHT22;72820;44.838;37.674;2023-12-20T03:48:18;9.93;85.03
78992;DHT22;72820;44.838;37.674;2023-12-20T03:49:20;9.91;85.18
78992;DHT22;72820;44.838;37.674;2023-12-20T03:50:25;9.91;85.03
78992;DHT22;72820;44.838;37.674;2023-12-20T03:51:27;9.95;85.01
78992;DHT22;72820;44.838;37.674;2023-12-20T03:52:28;9.95;84.94
78992;DHT22;72820;44.838;37.674;2023-12-20T03:53:30;9.98;84.84
78992;DHT22;72820;44.838;37.674;2023-12-20T03:54:34;9.95;84.93
78992;DHT22;72820;44.838;37.674;2023-12-20T03:55:36;9.94;84.81
78992;DHT22;72820;44.838;37.674;2023-12-20T03:56:38;9.91;84.94
78992;DHT22;72820;44.838;37.674;2023-12-20T03:57:39;9.97;84.98
78992;DHT22;72820;44.838;37.674;2023-12-20T03:58:41;9.94;84.70
78992;DHT22;72820;44.838;37.674;2023-12-20T03:59:43;9.97;84.73
78992;DHT22;72820;44.838;37.674;2023-12-20T04:00:44;9.95;84.89
78992;DHT22;72820;44.838;37.674;2023-12-20T04:01:46;9.91;84.95
78992;DHT22;72820;44.838;37.674;2023-12-20T04:02:49;9.93;84.91
78992;DHT22;72820;44.838;37.674;2023-12-20T04:03:50;9.91;85.25
78992;DHT22;72820;44.838;37.674;2023-12-20T04:04:52;9.93;84.92
78992;DHT22;72820;44.838;37.674;2023-12-20T04:05:54;9.91;84.96
78992;DHT22;72820;44.838;37.674;2023-12-20T04:06:56;9.90;85.29
78992;DHT22;72820;44.838;37.674;2023-12-20T04:07:58;9.94;84.97
78992;DHT22;72820;44.838;37.674;2023-12-20T04:08:59;9.95;85.08
78992;DHT22;72820;44.838;37.674;2023-12-20T04:10:02;9.95;84.96
78992;DHT22;72820;44.838;37.674;2023-12-20T04:11:05;9.97;84.60
78992;DHT22;72820;44.838;37.674;2023-12-20T04:12:07;9.95;84.66
78992;DHT22;72820;44.838;37.674;2023-12-20T04:13:08;9.97;84.75
78992;DHT22;72820;44.838;37.674;2023-12-20T04:14:10;9.97;84.60
78992;DHT22;72820;44.838;37.674;2023-12-20T04:15:12;9.97;84.55
78992;DHT22;72820;44.838;37.674;2023-12-20T04:16:14;9.97;84.72
78992;DHT22;72820;44.838;37.674;2023-12-20T04:17:16;10.01;84.59
78992;DHT22;72820;44.838;37.674;2023-12-20T04:18:18;10.04;84.41
78992;DHT22;72820;44.838;37.674;2023-12-20T04:19:19;10.04;84.47
78992;DHT22;72820;44.838;37.674;2023-12-20T04:20:21;10.05;84.46
78992;DHT22;72820;44.838;37.674;2023-12-20T04:21:23;10.05;84.26
78992;DHT22;72820;44.838;37.674;2023-12-20T04:22:25;10.01;84.38
78992;DHT22;72820;44.838;37.674;2023-12-20T04:23:26;10.03;84.17
78992;DHT22;72820;44.838;37.674;2023-12-20T04:24:28;10.05;84.19
78992;DHT22;72820;44.838;37.674;2023-12-20T04:25:30;10.01;84.13
78992;DHT22;72820;44.838;37.674;2023-12-20T04:26:32;10.00;84.41
78992;DHT22;72820;44.838;37.674;2023-12-20T04:27:33;10.01;84.24
78992;DHT22;72820;44.838;37.674;2023-12-20T04:28:35;10.01;84.33
78992;DHT22;72820;44.838;37.674;2023-12-20T04:29:37;10.04;84.33
78992;DHT22;72820;44.838;37.674;2023-12-20T04:30:39;10.04;84.07
78992;DHT22;72820;44.838;37.674;2023-12-20T04:31:40;10.01;84.22
78992;DHT22;72820;44.838;37.674;2023-12-20T04:32:42;10.00;83.85
78992;DHT22;72820;44.838;37.674;2023-12-20T04:33:44;10.00;84.14
78992;DHT22;72820;44.838;37.674;2023-12-20T04:34:45;10.07;83.85
78992;DHT22;72820;44.838;37.674;2023-12-20T04:35:47;10.07;83.58
78992;DHT22;72820;44.838;37.674;2023-12-20T04:36:49;10.05;83.76
78992;DHT22;72820;44.838;37.674;2023-12-20T04:37:50;10.10;83.78
78992;DHT22;72820;44.838;37.674;2023-12-20T04:38:53;10.04;83.17
78992;DHT22;72820;44.838;37.674;2023-12-20T04:39:55;10.04;83.60
78992;DHT22;72820;44.838;37.674;2023-12-20T04:40:56;10.07;83.67
78992;DHT22;72820;44.838;37.674;2023-12-20T04:41:58;10.04;83.01
78992;DHT22;72820;44.838;37.674;2023-12-20T04:43:00;10.03;83.37
78992;DHT22;72820;44.838;37.674;2023-12-20T04:44:01;10.01;83.36
78992;DHT22;72820;44.838;37.674;2023-12-20T04:45:04;10.01;83.53
78992;DHT22;72820;44.838;37.674;2023-12-20T04:46:05;10.00;83.28
78992;DHT22;72820;44.838;37.674;2023-12-20T04:47:07;9.98;83.34
78992;DHT22;72820;44.838;37.674;2023-12-20T04:48:09;10.01;83.56
78992;DHT22;72820;44.838;37.674;2023-12-20T04:49:11;10.05;83.22
78992;DHT22;72820;44.838;37.674;2023-12-20T04:50:13;10.08;83.19
78992;DHT22;72820;44.838;37.674;2023-12-20T04:51:15;10.05;83.26
78992;DHT22;72820;44.838;37.674;2023-12-20T04:52:17;10.05;83.26
78992;DHT22;72820;44.838;37.674;2023-12-20T04:53:19;10.03;83.64
78992;DHT22;72820;44.838;37.674;2023-12-20T04:54:21;10.03;83.64
78992;DHT22;72820;44.838;37.674;2023-12-20T04:55:22;10.01;83.43
78992;DHT22;72820;44.838;37.674;2023-12-20T04:56:24;10.01;83.80
78992;DHT22;72820;44.838;37.674;2023-12-20T04:57:26;10.00;83.38
78992;DHT22;72820;44.838;37.674;2023-12-20T04:58:27;9.95;83.87
78992;DHT22;72820;44.838;37.674;2023-12-20T04:59:29;9.97;83.80
78992;DHT22;72820;44.838;37.674;2023-12-20T05:00:30;9.94;83.46
78992;DHT22;72820;44.838;37.674;2023-12-20T05:01:32;9.98;84.97
78992;DHT22;72820;44.838;37.674;2023-12-20T05:02:35;9.94;83.63
78992;DHT22;72820;44.838;37.674;2023-12-20T05:03:37;9.95;83.73
78992;DHT22;72820;44.838;37.674;2023-12-20T05:04:39;9.93;83.33
78992;DHT22;72820;44.838;37.674;2023-12-20T05:05:42;9.93;83.60
78992;DHT22;72820;44.838;37.674;2023-12-20T05:06:43;9.89;83.78
78992;DHT22;72820;44.838;37.674;2023-12-20T05:07:45;9.90;83.73
78992;DHT22;72820;44.838;37.674;2023-12-20T05:08:47;9.90;83.36
78992;DHT22;72820;44.838;37.674;2023-12-20T05:09:48;9.90;83.55
78992;DHT22;72820;44.838;37.674;2023-12-20T05:10:52;9.91;84.29
78992;DHT22;72820;44.838;37.674;2023-12-20T05:11:55;9.90;83.45
78992;DHT22;72820;44.838;37.674;2023-12-20T05:12:57;9.90;83.47
78992;DHT22;72820;44.838;37.674;2023-12-20T05:13:58;9.87;83.32
78992;DHT22;72820;44.838;37.674;2023-12-20T05:15:00;9.87;83.26
78992;DHT22;72820;44.838;37.674;2023-12-20T05:16:01;9.87;83.82
78992;DHT22;72820;44.838;37.674;2023-12-20T05:17:03;9.86;83.20
78992;DHT22;72820;44.838;37.674;2023-12-20T05:18:05;9.89;84.33
78992;DHT22;72820;44.838;37.674;2023-12-20T05:19:07;9.95;82.84
78992;DHT22;72820;44.838;37.674;2023-12-20T05:20:09;9.91;82.86
78992;DHT22;72820;44.838;37.674;2023-12-20T05:21:11;9.89;84.08
78992;DHT22;72820;44.838;37.674;2023-12-20T05:22:13;9.94;82.99
78992;DHT22;72820;44.838;37.674;2023-12-20T05:23:15;9.94;82.94
78992;DHT22;72820;44.838;37.674;2023-12-20T05:24:16;9.90;82.93
78992;DHT22;72820;44.838;37.674;2023-12-20T05:25:18;9.91;83.18
78992;DHT22;72820;44.838;37.674;2023-12-20T05:26:20;9.89;82.98
78992;DHT22;72820;44.838;37.674;2023-12-20T05:27:23;9.90;83.23
78992;DHT22;72820;44.838;37.674;2023-12-20T05:28:24;9.90;83.18
78992;DHT22;72820;44.838;37.674;2023-12-20T05:29:27;9.90;82.95
78992;DHT22;72820;44.838;37.674;2023-12-20T05:30:28;9.89;83.28
78992;DHT22;72820;44.838;37.674;2023-12-20T05:31:31;9.94;83.21
78992;DHT22;72820;44.838;37.674;2023-12-20T05:32:33;9.90;82.75
78992;DHT22;72820;44.838;37.674;2023-12-20T05:33:34;9.91;82.95
78992;DHT22;72820;44.838;37.674;2023-12-20T05:34:36;9.93;82.72
78992;DHT22;72820;44.838;37.674;2023-12-20T05:35:38;9.91;82.82
78992;DHT22;72820;44.838;37.674;2023-12-20T05:36:39;9.93;82.70
78992;DHT22;72820;44.838;37.674;2023-12-20T05:37:41;9.94;82.60
78992;DHT22;72820;44.838;37.674;2023-12-20T05:38:43;9.95;82.55
78992;DHT22;72820;44.838;37.674;2023-12-20T05:39:45;9.94;83.10
78992;DHT22;72820;44.838;37.674;2023-12-20T05:40:46;10.04;83.00
78992;DHT22;72820;44.838;37.674;2023-12-20T05:41:48;10.03;82.39
78992;DHT22;72820;44.838;37.674;2023-12-20T05:42:50;10.03;82.72
78992;DHT22;72820;44.838;37.674;2023-12-20T05:43:51;10.07;82.27
78992;DHT22;72820;44.838;37.674;2023-12-20T05:44:53;10.11;82.44
78992;DHT22;72820;44.838;37.674;2023-12-20T05:45:55;10.08;82.16
78992;DHT22;72820;44.838;37.674;2023-12-20T05:46:57;10.10;82.51
78992;DHT22;72820;44.838;37.674;2023-12-20T05:47:58;10.12;82.06
78992;DHT22;72820;44.838;37.674;2023-12-20T05:49:00;10.14;82.17
78992;DHT22;72820;44.838;37.674;2023-12-20T05:50:02;10.12;82.29
78992;DHT22;72820;44.838;37.674;2023-12-20T05:51:04;10.17;82.25
78992;DHT22;72820;44.838;37.674;2023-12-20T05:52:05;10.14;81.98
78992;DHT22;72820;44.838;37.674;2023-12-20T05:53:07;10.15;81.86
78992;DHT22;72820;44.838;37.674;2023-12-20T05:54:09;10.20;81.75
78992;DHT22;72820;44.838;37.674;2023-12-20T05:55:11;10.21;82.64
78992;DHT22;72820;44.838;37.674;2023-12-20T05:56:13;10.25;81.55
78992;DHT22;72820;44.838;37.674;2023-12-20T05:57:14;10.24;80.84
78992;DHT22;72820;44.838;37.674;2023-12-20T05:58:16;10.28;80.71
78992;DHT22;72820;44.838;37.674;2023-12-20T05:59:18;10.28;80.56
78992;DHT22;72820;44.838;37.674;2023-12-20T06:00:19;10.29;81.18
78992;DHT22;72820;44.838;37.674;2023-12-20T06:01:21;10.28;80.59
78992;DHT22;72820;44.838;37.674;2023-12-20T06:02:22;10.25;80.53
78992;DHT22;72820;44.838;37.674;2023-12-20T06:03:24;10.29;80.77
78992;DHT22;72820;44.838;37.674;2023-12-20T06:04:26;10.32;80.84
78992;DHT22;72820;44.838;37.674;2023-12-20T06:05:27;10.35;80.74
78992;DHT22;72820;44.838;37.674;2023-12-20T06:06:29;10.34;80.87
78992;DHT22;72820;44.838;37.674;2023-12-20T06:07:31;10.31;80.68
78992;DHT22;72820;44.838;37.674;2023-12-20T06:08:33;10.32;80.63
78992;DHT22;72820;44.838;37.674;2023-12-20T06:09:35;10.32;81.99
78992;DHT22;72820;44.838;37.674;2023-12-20T06:10:37;10.56;82.87
78992;DHT22;72820;44.838;37.674;2023-12-20T06:11:39;10.63;80.83
78992;DHT22;72820;44.838;37.674;2023-12-20T06:12:40;10.73;80.43
78992;DHT22;72820;44.838;37.674;2023-12-20T06:13:43;10.83;80.17
78992;DHT22;72820;44.838;37.674;2023-12-20T06:14:44;10.94;78.50
78992;DHT22;72820;44.838;37.674;2023-12-20T06:15:46;10.84;79.01
78992;DHT22;72820;44.838;37.674;2023-12-20T06:16:48;10.80;78.80
78992;DHT22;72820;44.838;37.674;2023-12-20T06:17:50;10.70;79.10
78992;DHT22;72820;44.838;37.674;2023-12-20T06:18:52;10.65;79.34
78992;DHT22;72820;44.838;37.674;2023-12-20T06:19:53;10.62;79.09
78992;DHT22;72820;44.838;37.674;2023-12-20T06:20:55;10.57;79.32
78992;DHT22;72820;44.838;37.674;2023-12-20T06:21:57;10.57;79.54
78992;DHT22;72820;44.838;37.674;2023-12-20T06:22:58;10.59;79.82
78992;DHT22;72820;44.838;37.674;2023-12-20T06:24:00;10.60;79.80
78992;DHT22;72820;44.838;37.674;2023-12-20T06:25:02;10.62;79.03
78992;DHT22;72820;44.838;37.674;2023-12-20T06:26:04;10.60;79.44
78992;DHT22;72820;44.838;37.674;2023-12-20T06:27:06;10.60;79.39
78992;DHT22;72820;44.838;37.674;2023-12-20T06:28:08;10.62;79.57
78992;DHT22;72820;44.838;37.674;2023-12-20T06:29:12;10.65;79.43
78992;DHT22;72820;44.838;37.674;2023-12-20T06:30:14;10.70;79.33